Aspen, CO

2:36 AM MDT on May 25, 2015 (GMT -0600)
MesoWest | | Change Station
CLOSE
Current Station
Personal Weather Station
Location: Twin Lakes, CO
Elevation: 10600 ft
Nearby Weather Stations

Elev 10600 ft 39.09 °N, 106.54 °W | Updated 3 days ago

Snow
Snow
30 °F
Feels Like 25 °F
N
5
Wind Variable Wind from NNW
Gusts mph

Today
High -- | Low -- °F
--% Chance of Precip.
Yesterday
High -- | Low -- °F
Precip. -- in
5:45 AM 8:20 PM
Waxing Crescent, 46% visible
Pressure 30.01 in
Visibility 10.0 miles
Clouds Mostly Cloudy 3800 ft
Overcast 5500 ft
Windchill 25 °F
Dew Point 27 °F
Humidity 90%
Rainfall in
Snow Depth Not available.
UV 0 out of 12
Pollen 6.30 out of 12
Air Quality Not available.
Flu Activity Sporadic
SPECI KLXV 250824Z AUTO 00000KT 10SM BKN038 OVC055 M01/M01 A3001

More Conditions Fewer Conditions

Pressure 30.01 in
Visibility 10.0 miles
Clouds Mostly Cloudy 3800 ft
Overcast 5500 ft
Windchill 25 °F
Dew Point 27 °F
Humidity 90%
Rainfall in
Snow Depth Not available.
UV 0 out of 12
Pollen 6.30 out of 12
Air Quality Not available.
Flu Activity Sporadic
SPECI KLXV 250824Z AUTO 00000KT 10SM BKN038 OVC055 M01/M01 A3001

More Conditions Fewer Conditions

10-Day Weather Forecast

Almanac

Astronomy

May. 25, 2015 Rise Set
Actual Time
Civil Twilight
Nautical Twilight
Astronomical Twilight
Moon
Length of Visible Light
Length of Day
Tomorrow will be .
, % of the Moon is Illuminated

Today's Extremes

State Highs State Lows

Community

WunderPhotos

Upload Photos

1,823,959 photos uploaded!

WunderBlogs® & News

Nearby

Air Quality

  Air Quality AQ Index Pollutant
Not available.

Snow Depth

Station Depth Elevation

Earthquake Activity

City Distance Mag. Time & Date
Minimum magnitude displayed is 2.5.

Coastal Water Temperatures

Place Temperature

Stations

Nearby Weather Stations

Station Location Temp. Windchill Dew Point Humidity Wind Precip. Elev Updated Type